sensor_id;sensor_type;location;lat;lon;timestamp;P1;durP1;ratioP1;P2;durP2;ratioP2
46765;SDS011;32527;51.986;5.842;2023-12-04T00:00:31;18.33;;;8.48;;
46765;SDS011;32527;51.986;5.842;2023-12-04T00:02:57;16.50;;;9.15;;
46765;SDS011;32527;51.986;5.842;2023-12-04T00:05:23;15.75;;;8.48;;
46765;SDS011;32527;51.986;5.842;2023-12-04T00:07:49;12.40;;;7.68;;
46765;SDS011;32527;51.986;5.842;2023-12-04T00:10:15;15.82;;;9.20;;
46765;SDS011;32527;51.986;5.842;2023-12-04T00:12:41;13.10;;;7.45;;
46765;SDS011;32527;51.986;5.842;2023-12-04T00:15:08;14.43;;;7.55;;
46765;SDS011;32527;51.986;5.842;2023-12-04T00:17:34;13.20;;;7.35;;
46765;SDS011;32527;51.986;5.842;2023-12-04T00:20:05;12.88;;;5.85;;
46765;SDS011;32527;51.986;5.842;2023-12-04T00:22:31;11.73;;;5.93;;
46765;SDS011;32527;51.986;5.842;2023-12-04T00:24:57;14.48;;;8.27;;
46765;SDS011;32527;51.986;5.842;2023-12-04T00:27:23;10.10;;;7.18;;
46765;SDS011;32527;51.986;5.842;2023-12-04T00:29:55;15.63;;;9.18;;
46765;SDS011;32527;51.986;5.842;2023-12-04T00:32:21;19.63;;;7.57;;
46765;SDS011;32527;51.986;5.842;2023-12-04T00:34:47;17.63;;;9.80;;
46765;SDS011;32527;51.986;5.842;2023-12-04T00:37:13;19.73;;;6.75;;
46765;SDS011;32527;51.986;5.842;2023-12-04T00:39:39;19.73;;;9.98;;
46765;SDS011;32527;51.986;5.842;2023-12-04T00:42:05;19.52;;;9.50;;
46765;SDS011;32527;51.986;5.842;2023-12-04T00:44:31;14.32;;;5.35;;
46765;SDS011;32527;51.986;5.842;2023-12-04T00:46:57;16.98;;;8.43;;
46765;SDS011;32527;51.986;5.842;2023-12-04T00:49:23;12.93;;;10.23;;
46765;SDS011;32527;51.986;5.842;2023-12-04T00:51:50;13.20;;;8.38;;
46765;SDS011;32527;51.986;5.842;2023-12-04T00:54:16;13.15;;;7.85;;
46765;SDS011;32527;51.986;5.842;2023-12-04T00:56:42;20.33;;;8.77;;
46765;SDS011;32527;51.986;5.842;2023-12-04T00:59:08;17.48;;;7.90;;
46765;SDS011;32527;51.986;5.842;2023-12-04T01:01:37;12.00;;;5.75;;
46765;SDS011;32527;51.986;5.842;2023-12-04T01:04:03;14.52;;;7.57;;
46765;SDS011;32527;51.986;5.842;2023-12-04T01:06:29;15.50;;;8.70;;
46765;SDS011;32527;51.986;5.842;2023-12-04T01:08:55;19.20;;;9.30;;
46765;SDS011;32527;51.986;5.842;2023-12-04T01:11:22;18.25;;;10.13;;
46765;SDS011;32527;51.986;5.842;2023-12-04T01:13:48;21.80;;;8.98;;
46765;SDS011;32527;51.986;5.842;2023-12-04T01:16:14;16.48;;;9.00;;
46765;SDS011;32527;51.986;5.842;2023-12-04T01:18:41;15.32;;;8.02;;
46765;SDS011;32527;51.986;5.842;2023-12-04T01:21:08;13.95;;;10.25;;
46765;SDS011;32527;51.986;5.842;2023-12-04T01:23:34;30.40;;;8.57;;
46765;SDS011;32527;51.986;5.842;2023-12-04T01:26:01;12.98;;;6.60;;
46765;SDS011;32527;51.986;5.842;2023-12-04T01:28:27;14.55;;;7.28;;
46765;SDS011;32527;51.986;5.842;2023-12-04T01:30:53;21.13;;;10.45;;
46765;SDS011;32527;51.986;5.842;2023-12-04T01:33:19;18.23;;;8.07;;
46765;SDS011;32527;51.986;5.842;2023-12-04T01:35:45;16.08;;;8.55;;
46765;SDS011;32527;51.986;5.842;2023-12-04T01:38:11;18.90;;;7.18;;
46765;SDS011;32527;51.986;5.842;2023-12-04T01:40:37;13.63;;;7.82;;
46765;SDS011;32527;51.986;5.842;2023-12-04T01:43:03;16.55;;;6.45;;
46765;SDS011;32527;51.986;5.842;2023-12-04T01:45:30;10.65;;;6.28;;
46765;SDS011;32527;51.986;5.842;2023-12-04T01:47:57;13.60;;;7.80;;
46765;SDS011;32527;51.986;5.842;2023-12-04T01:50:23;14.57;;;8.48;;
46765;SDS011;32527;51.986;5.842;2023-12-04T01:52:49;16.20;;;8.43;;
46765;SDS011;32527;51.986;5.842;2023-12-04T01:55:17;18.67;;;8.52;;
46765;SDS011;32527;51.986;5.842;2023-12-04T01:57:43;10.32;;;7.88;;
46765;SDS011;32527;51.986;5.842;2023-12-04T02:00:09;12.82;;;8.07;;
46765;SDS011;32527;51.986;5.842;2023-12-04T02:02:40;15.20;;;8.93;;
46765;SDS011;32527;51.986;5.842;2023-12-04T02:05:09;11.80;;;7.10;;
46765;SDS011;32527;51.986;5.842;2023-12-04T02:07:36;9.50;;;7.57;;
46765;SDS011;32527;51.986;5.842;2023-12-04T02:10:03;16.02;;;7.78;;
46765;SDS011;32527;51.986;5.842;2023-12-04T02:12:29;11.73;;;5.45;;
46765;SDS011;32527;51.986;5.842;2023-12-04T02:14:55;17.23;;;8.60;;
46765;SDS011;32527;51.986;5.842;2023-12-04T02:17:22;16.40;;;7.82;;
46765;SDS011;32527;51.986;5.842;2023-12-04T02:19:49;13.95;;;5.13;;
46765;SDS011;32527;51.986;5.842;2023-12-04T02:22:15;15.15;;;8.30;;
46765;SDS011;32527;51.986;5.842;2023-12-04T02:24:45;12.13;;;6.57;;
46765;SDS011;32527;51.986;5.842;2023-12-04T02:29:51;10.95;;;7.07;;
46765;SDS011;32527;51.986;5.842;2023-12-04T02:32:21;21.85;;;7.00;;
46765;SDS011;32527;51.986;5.842;2023-12-04T02:34:48;11.20;;;7.25;;
46765;SDS011;32527;51.986;5.842;2023-12-04T02:37:15;12.52;;;8.10;;
46765;SDS011;32527;51.986;5.842;2023-12-04T02:39:41;11.50;;;7.00;;
46765;SDS011;32527;51.986;5.842;2023-12-04T02:42:08;10.27;;;5.80;;
46765;SDS011;32527;51.986;5.842;2023-12-04T02:44:34;13.05;;;7.45;;
46765;SDS011;32527;51.986;5.842;2023-12-04T02:47:00;12.90;;;7.72;;
46765;SDS011;32527;51.986;5.842;2023-12-04T02:49:26;8.15;;;6.40;;
46765;SDS011;32527;51.986;5.842;2023-12-04T02:51:52;14.35;;;7.68;;
46765;SDS011;32527;51.986;5.842;2023-12-04T02:54:18;11.10;;;7.13;;
46765;SDS011;32527;51.986;5.842;2023-12-04T02:56:44;11.10;;;6.75;;
46765;SDS011;32527;51.986;5.842;2023-12-04T02:59:10;11.70;;;7.25;;
46765;SDS011;32527;51.986;5.842;2023-12-04T03:01:36;14.73;;;5.90;;
46765;SDS011;32527;51.986;5.842;2023-12-04T03:04:02;14.55;;;5.93;;
46765;SDS011;32527;51.986;5.842;2023-12-04T03:06:28;8.82;;;5.30;;
46765;SDS011;32527;51.986;5.842;2023-12-04T03:08:54;15.95;;;7.47;;
46765;SDS011;32527;51.986;5.842;2023-12-04T03:11:21;13.63;;;6.97;;
46765;SDS011;32527;51.986;5.842;2023-12-04T03:13:47;13.60;;;7.47;;
46765;SDS011;32527;51.986;5.842;2023-12-04T03:16:16;14.13;;;7.55;;
46765;SDS011;32527;51.986;5.842;2023-12-04T03:18:43;11.88;;;6.50;;
46765;SDS011;32527;51.986;5.842;2023-12-04T03:21:09;5.47;;;4.78;;
46765;SDS011;32527;51.986;5.842;2023-12-04T03:23:35;13.15;;;6.93;;
46765;SDS011;32527;51.986;5.842;2023-12-04T03:26:01;13.48;;;6.85;;
46765;SDS011;32527;51.986;5.842;2023-12-04T03:28:28;12.02;;;7.30;;
46765;SDS011;32527;51.986;5.842;2023-12-04T03:30:54;15.00;;;8.40;;
46765;SDS011;32527;51.986;5.842;2023-12-04T03:33:20;10.18;;;6.72;;
46765;SDS011;32527;51.986;5.842;2023-12-04T03:35:46;11.55;;;7.15;;
46765;SDS011;32527;51.986;5.842;2023-12-04T03:38:12;14.50;;;7.20;;
46765;SDS011;32527;51.986;5.842;2023-12-04T03:40:38;8.15;;;6.07;;
46765;SDS011;32527;51.986;5.842;2023-12-04T03:43:04;11.82;;;7.70;;
46765;SDS011;32527;51.986;5.842;2023-12-04T03:45:30;13.88;;;7.45;;
46765;SDS011;32527;51.986;5.842;2023-12-04T03:47:57;12.48;;;6.90;;
46765;SDS011;32527;51.986;5.842;2023-12-04T03:50:23;13.88;;;5.57;;
46765;SDS011;32527;51.986;5.842;2023-12-04T03:52:49;12.15;;;8.10;;
46765;SDS011;32527;51.986;5.842;2023-12-04T03:55:15;7.03;;;4.70;;
46765;SDS011;32527;51.986;5.842;2023-12-04T03:57:41;10.93;;;5.55;;
46765;SDS011;32527;51.986;5.842;2023-12-04T04:00:09;19.77;;;7.00;;
46765;SDS011;32527;51.986;5.842;2023-12-04T04:02:39;13.05;;;7.07;;
46765;SDS011;32527;51.986;5.842;2023-12-04T04:05:05;12.00;;;8.10;;
46765;SDS011;32527;51.986;5.842;2023-12-04T04:07:31;9.57;;;6.40;;
46765;SDS011;32527;51.986;5.842;2023-12-04T04:09:57;16.50;;;6.68;;
46765;SDS011;32527;51.986;5.842;2023-12-04T04:12:23;11.90;;;6.90;;
46765;SDS011;32527;51.986;5.842;2023-12-04T04:14:49;11.80;;;5.68;;
46765;SDS011;32527;51.986;5.842;2023-12-04T04:17:15;15.43;;;7.03;;
46765;SDS011;32527;51.986;5.842;2023-12-04T04:19:41;6.43;;;5.05;;
46765;SDS011;32527;51.986;5.842;2023-12-04T04:22:07;9.38;;;4.93;;
46765;SDS011;32527;51.986;5.842;2023-12-04T04:24:33;13.50;;;6.55;;
46765;SDS011;32527;51.986;5.842;2023-12-04T04:26:59;11.93;;;4.13;;
46765;SDS011;32527;51.986;5.842;2023-12-04T04:29:26;9.57;;;5.10;;
46765;SDS011;32527;51.986;5.842;2023-12-04T04:31:52;8.65;;;4.60;;
46765;SDS011;32527;51.986;5.842;2023-12-04T04:34:19;5.70;;;4.63;;
46765;SDS011;32527;51.986;5.842;2023-12-04T04:36:46;8.35;;;5.60;;
46765;SDS011;32527;51.986;5.842;2023-12-04T04:39:13;8.13;;;5.32;;
46765;SDS011;32527;51.986;5.842;2023-12-04T04:41:39;8.23;;;6.30;;
46765;SDS011;32527;51.986;5.842;2023-12-04T04:44:05;9.98;;;5.35;;
46765;SDS011;32527;51.986;5.842;2023-12-04T04:46:31;11.10;;;5.40;;
46765;SDS011;32527;51.986;5.842;2023-12-04T04:48:57;9.40;;;5.72;;
46765;SDS011;32527;51.986;5.842;2023-12-04T04:51:24;7.05;;;5.50;;
46765;SDS011;32527;51.986;5.842;2023-12-04T04:53:50;6.60;;;4.95;;
46765;SDS011;32527;51.986;5.842;2023-12-04T04:56:17;8.05;;;4.18;;
46765;SDS011;32527;51.986;5.842;2023-12-04T04:58:42;8.98;;;5.30;;
46765;SDS011;32527;51.986;5.842;2023-12-04T05:01:08;7.65;;;5.65;;
46765;SDS011;32527;51.986;5.842;2023-12-04T05:03:34;11.63;;;6.45;;
46765;SDS011;32527;51.986;5.842;2023-12-04T05:06:00;12.50;;;5.55;;
46765;SDS011;32527;51.986;5.842;2023-12-04T05:08:27;11.57;;;5.88;;
46765;SDS011;32527;51.986;5.842;2023-12-04T05:10:53;8.45;;;6.80;;
46765;SDS011;32527;51.986;5.842;2023-12-04T05:13:19;14.75;;;7.22;;
46765;SDS011;32527;51.986;5.842;2023-12-04T05:15:45;8.55;;;5.20;;
46765;SDS011;32527;51.986;5.842;2023-12-04T05:18:11;15.80;;;5.40;;
46765;SDS011;32527;51.986;5.842;2023-12-04T05:20:37;9.27;;;4.90;;
46765;SDS011;32527;51.986;5.842;2023-12-04T05:23:03;15.02;;;6.40;;
46765;SDS011;32527;51.986;5.842;2023-12-04T05:25:29;11.27;;;5.13;;
46765;SDS011;32527;51.986;5.842;2023-12-04T05:27:55;9.57;;;7.15;;
46765;SDS011;32527;51.986;5.842;2023-12-04T05:30:21;9.20;;;5.28;;
46765;SDS011;32527;51.986;5.842;2023-12-04T05:32:47;10.13;;;5.38;;
46765;SDS011;32527;51.986;5.842;2023-12-04T05:35:14;8.95;;;5.70;;
46765;SDS011;32527;51.986;5.842;2023-12-04T05:37:41;9.10;;;6.85;;
46765;SDS011;32527;51.986;5.842;2023-12-04T05:40:07;11.30;;;5.47;;
46765;SDS011;32527;51.986;5.842;2023-12-04T05:42:33;7.95;;;4.97;;
46765;SDS011;32527;51.986;5.842;2023-12-04T05:44:59;8.85;;;4.53;;
46765;SDS011;32527;51.986;5.842;2023-12-04T05:47:26;8.85;;;5.82;;
46765;SDS011;32527;51.986;5.842;2023-12-04T05:49:52;13.52;;;7.65;;
46765;SDS011;32527;51.986;5.842;2023-12-04T05:52:18;12.27;;;6.72;;
46765;SDS011;32527;51.986;5.842;2023-12-04T05:54:44;9.82;;;5.28;;
46765;SDS011;32527;51.986;5.842;2023-12-04T05:57:10;11.88;;;5.20;;
46765;SDS011;32527;51.986;5.842;2023-12-04T05:59:36;10.68;;;4.75;;
46765;SDS011;32527;51.986;5.842;2023-12-04T06:02:02;12.32;;;6.47;;
46765;SDS011;32527;51.986;5.842;2023-12-04T06:04:29;11.15;;;7.18;;
46765;SDS011;32527;51.986;5.842;2023-12-04T06:06:55;9.18;;;4.60;;
46765;SDS011;32527;51.986;5.842;2023-12-04T06:09:21;8.15;;;5.53;;
46765;SDS011;32527;51.986;5.842;2023-12-04T06:11:47;8.45;;;5.90;;
46765;SDS011;32527;51.986;5.842;2023-12-04T06:14:13;16.33;;;5.15;;
46765;SDS011;32527;51.986;5.842;2023-12-04T06:16:39;4.53;;;4.03;;
46765;SDS011;32527;51.986;5.842;2023-12-04T06:19:06;8.85;;;4.72;;
46765;SDS011;32527;51.986;5.842;2023-12-04T06:21:32;8.10;;;4.15;;
46765;SDS011;32527;51.986;5.842;2023-12-04T06:23:58;15.02;;;5.43;;
46765;SDS011;32527;51.986;5.842;2023-12-04T06:26:24;10.27;;;5.45;;
46765;SDS011;32527;51.986;5.842;2023-12-04T06:28:50;6.80;;;4.35;;
46765;SDS011;32527;51.986;5.842;2023-12-04T06:31:17;11.80;;;4.75;;
46765;SDS011;32527;51.986;5.842;2023-12-04T06:33:43;7.32;;;4.43;;
46765;SDS011;32527;51.986;5.842;2023-12-04T06:36:10;6.80;;;4.30;;
46765;SDS011;32527;51.986;5.842;2023-12-04T06:38:39;13.50;;;4.20;;
46765;SDS011;32527;51.986;5.842;2023-12-04T06:41:05;8.27;;;5.80;;
46765;SDS011;32527;51.986;5.842;2023-12-04T06:43:31;7.28;;;5.63;;
46765;SDS011;32527;51.986;5.842;2023-12-04T06:45:58;7.25;;;5.00;;
46765;SDS011;32527;51.986;5.842;2023-12-04T06:48:24;8.15;;;5.57;;
46765;SDS011;32527;51.986;5.842;2023-12-04T06:50:50;7.10;;;5.70;;
46765;SDS011;32527;51.986;5.842;2023-12-04T06:53:16;11.80;;;5.00;;
46765;SDS011;32527;51.986;5.842;2023-12-04T06:55:42;6.20;;;4.57;;
46765;SDS011;32527;51.986;5.842;2023-12-04T06:58:10;9.20;;;6.40;;
46765;SDS011;32527;51.986;5.842;2023-12-04T07:00:36;5.85;;;4.00;;
46765;SDS011;32527;51.986;5.842;2023-12-04T07:03:02;8.85;;;4.60;;
46765;SDS011;32527;51.986;5.842;2023-12-04T07:05:28;4.72;;;4.10;;
46765;SDS011;32527;51.986;5.842;2023-12-04T07:07:54;8.52;;;6.22;;
46765;SDS011;32527;51.986;5.842;2023-12-04T07:10:20;7.25;;;4.15;;
46765;SDS011;32527;51.986;5.842;2023-12-04T07:12:46;7.85;;;4.30;;
46765;SDS011;32527;51.986;5.842;2023-12-04T07:15:13;5.70;;;3.13;;
46765;SDS011;32527;51.986;5.842;2023-12-04T07:18:01;8.43;;;4.22;;
46765;SDS011;32527;51.986;5.842;2023-12-04T07:20:29;10.95;;;5.35;;
46765;SDS011;32527;51.986;5.842;2023-12-04T07:22:56;7.70;;;6.22;;
46765;SDS011;32527;51.986;5.842;2023-12-04T07:25:23;8.00;;;5.60;;
46765;SDS011;32527;51.986;5.842;2023-12-04T07:27:49;5.03;;;4.38;;
46765;SDS011;32527;51.986;5.842;2023-12-04T07:30:15;14.77;;;6.03;;
46765;SDS011;32527;51.986;5.842;2023-12-04T07:32:42;7.63;;;4.45;;
46765;SDS011;32527;51.986;5.842;2023-12-04T07:35:08;7.80;;;3.63;;
46765;SDS011;32527;51.986;5.842;2023-12-04T07:37:34;9.43;;;5.80;;
46765;SDS011;32527;51.986;5.842;2023-12-04T07:40:00;10.50;;;5.05;;
46765;SDS011;32527;51.986;5.842;2023-12-04T07:42:26;3.38;;;2.92;;
46765;SDS011;32527;51.986;5.842;2023-12-04T07:44:52;5.40;;;3.90;;
46765;SDS011;32527;51.986;5.842;2023-12-04T07:47:19;4.03;;;2.60;;
46765;SDS011;32527;51.986;5.842;2023-12-04T07:49:45;7.35;;;5.45;;
46765;SDS011;32527;51.986;5.842;2023-12-04T07:52:11;5.03;;;3.63;;
46765;SDS011;32527;51.986;5.842;2023-12-04T07:54:37;7.35;;;3.58;;
46765;SDS011;32527;51.986;5.842;2023-12-04T07:57:03;9.50;;;3.83;;
46765;SDS011;32527;51.986;5.842;2023-12-04T07:59:29;7.07;;;3.95;;
46765;SDS011;32527;51.986;5.842;2023-12-04T08:01:55;6.47;;;3.88;;
46765;SDS011;32527;51.986;5.842;2023-12-04T08:04:21;5.05;;;3.78;;
46765;SDS011;32527;51.986;5.842;2023-12-04T08:06:48;5.38;;;3.72;;
46765;SDS011;32527;51.986;5.842;2023-12-04T08:09:15;4.78;;;3.97;;
46765;SDS011;32527;51.986;5.842;2023-12-04T08:11:42;3.50;;;3.20;;
46765;SDS011;32527;51.986;5.842;2023-12-04T08:14:08;6.57;;;4.30;;
46765;SDS011;32527;51.986;5.842;2023-12-04T08:16:34;6.82;;;4.05;;
46765;SDS011;32527;51.986;5.842;2023-12-04T08:19:00;4.53;;;3.80;;
46765;SDS011;32527;51.986;5.842;2023-12-04T08:21:26;7.70;;;3.63;;
46765;SDS011;32527;51.986;5.842;2023-12-04T08:23:52;6.50;;;4.32;;
46765;SDS011;32527;51.986;5.842;2023-12-04T08:26:24;7.25;;;4.15;;
46765;SDS011;32527;51.986;5.842;2023-12-04T08:28:53;3.60;;;3.03;;
46765;SDS011;32527;51.986;5.842;2023-12-04T08:31:20;5.50;;;4.53;;
46765;SDS011;32527;51.986;5.842;2023-12-04T08:33:46;3.78;;;2.95;;
46765;SDS011;32527;51.986;5.842;2023-12-04T08:36:12;19.75;;;5.22;;
46765;SDS011;32527;51.986;5.842;2023-12-04T08:38:38;7.03;;;4.40;;
46765;SDS011;32527;51.986;5.842;2023-12-04T08:41:05;9.27;;;3.33;;
46765;SDS011;32527;51.986;5.842;2023-12-04T08:43:31;8.32;;;5.03;;
46765;SDS011;32527;51.986;5.842;2023-12-04T08:45:57;13.77;;;5.20;;
46765;SDS011;32527;51.986;5.842;2023-12-04T08:48:23;5.55;;;3.58;;
46765;SDS011;32527;51.986;5.842;2023-12-04T08:50:49;7.30;;;4.25;;
46765;SDS011;32527;51.986;5.842;2023-12-04T08:53:15;6.60;;;3.70;;
46765;SDS011;32527;51.986;5.842;2023-12-04T08:55:42;8.38;;;4.97;;
46765;SDS011;32527;51.986;5.842;2023-12-04T08:58:08;7.18;;;5.20;;
46765;SDS011;32527;51.986;5.842;2023-12-04T09:00:35;7.35;;;4.70;;
46765;SDS011;32527;51.986;5.842;2023-12-04T09:03:02;9.23;;;4.68;;
46765;SDS011;32527;51.986;5.842;2023-12-04T09:05:28;8.82;;;5.38;;
46765;SDS011;32527;51.986;5.842;2023-12-04T09:07:54;7.55;;;4.65;;
46765;SDS011;32527;51.986;5.842;2023-12-04T09:10:20;10.80;;;4.35;;
46765;SDS011;32527;51.986;5.842;2023-12-04T09:12:46;9.15;;;4.65;;
46765;SDS011;32527;51.986;5.842;2023-12-04T09:15:12;8.95;;;5.25;;
46765;SDS011;32527;51.986;5.842;2023-12-04T09:17:39;10.43;;;4.85;;
46765;SDS011;32527;51.986;5.842;2023-12-04T09:20:05;9.63;;;6.03;;
46765;SDS011;32527;51.986;5.842;2023-12-04T09:22:31;4.72;;;3.72;;
46765;SDS011;32527;51.986;5.842;2023-12-04T09:24:57;8.10;;;5.07;;
46765;SDS011;32527;51.986;5.842;2023-12-04T09:27:23;9.25;;;5.03;;
46765;SDS011;32527;51.986;5.842;2023-12-04T09:29:49;5.95;;;4.30;;
46765;SDS011;32527;51.986;5.842;2023-12-04T09:32:15;7.17;;;4.67;;
46765;SDS011;32527;51.986;5.842;2023-12-04T09:34:41;6.43;;;4.05;;
46765;SDS011;32527;51.986;5.842;2023-12-04T09:37:07;5.85;;;3.67;;
46765;SDS011;32527;51.986;5.842;2023-12-04T09:39:33;7.05;;;4.65;;
46765;SDS011;32527;51.986;5.842;2023-12-04T09:41:59;7.10;;;4.63;;
46765;SDS011;32527;51.986;5.842;2023-12-04T09:44:26;14.73;;;5.00;;
46765;SDS011;32527;51.986;5.842;2023-12-04T09:46:53;6.20;;;4.38;;
46765;SDS011;32527;51.986;5.842;2023-12-04T09:49:20;6.82;;;5.45;;
46765;SDS011;32527;51.986;5.842;2023-12-04T09:51:46;5.95;;;3.65;;
46765;SDS011;32527;51.986;5.842;2023-12-04T09:54:12;6.22;;;4.53;;
46765;SDS011;32527;51.986;5.842;2023-12-04T09:56:42;8.60;;;4.63;;
46765;SDS011;32527;51.986;5.842;2023-12-04T09:59:08;9.07;;;4.75;;
46765;SDS011;32527;51.986;5.842;2023-12-04T10:01:38;11.48;;;3.17;;
46765;SDS011;32527;51.986;5.842;2023-12-04T10:04:05;5.05;;;4.22;;
46765;SDS011;32527;51.986;5.842;2023-12-04T10:06:31;8.63;;;4.63;;
46765;SDS011;32527;51.986;5.842;2023-12-04T10:08:58;16.20;;;5.70;;
46765;SDS011;32527;51.986;5.842;2023-12-04T10:11:25;6.38;;;4.63;;
46765;SDS011;32527;51.986;5.842;2023-12-04T10:13:52;6.43;;;3.97;;
46765;SDS011;32527;51.986;5.842;2023-12-04T10:19:21;9.10;;;4.10;;
46765;SDS011;32527;51.986;5.842;2023-12-04T10:21:50;7.25;;;4.65;;
46765;SDS011;32527;51.986;5.842;2023-12-04T10:24:33;8.35;;;5.53;;
46765;SDS011;32527;51.986;5.842;2023-12-04T10:27:09;7.43;;;3.97;;
46765;SDS011;32527;51.986;5.842;2023-12-04T10:29:49;12.60;;;4.90;;
46765;SDS011;32527;51.986;5.842;2023-12-04T10:32:20;5.75;;;3.90;;
46765;SDS011;32527;51.986;5.842;2023-12-04T10:34:49;13.30;;;6.22;;
46765;SDS011;32527;51.986;5.842;2023-12-04T10:37:15;7.93;;;3.80;;
46765;SDS011;32527;51.986;5.842;2023-12-04T10:39:59;8.27;;;5.15;;
46765;SDS011;32527;51.986;5.842;2023-12-04T10:42:29;6.25;;;4.35;;
46765;SDS011;32527;51.986;5.842;2023-12-04T10:44:57;8.35;;;3.92;;
46765;SDS011;32527;51.986;5.842;2023-12-04T10:47:24;7.20;;;3.90;;
46765;SDS011;32527;51.986;5.842;2023-12-04T10:49:50;7.88;;;4.18;;
46765;SDS011;32527;51.986;5.842;2023-12-04T10:52:17;7.50;;;4.82;;
46765;SDS011;32527;51.986;5.842;2023-12-04T10:54:47;8.88;;;4.07;;
46765;SDS011;32527;51.986;5.842;2023-12-04T10:57:13;7.28;;;4.25;;
46765;SDS011;32527;51.986;5.842;2023-12-04T10:59:51;10.63;;;5.47;;
46765;SDS011;32527;51.986;5.842;2023-12-04T11:02:24;4.50;;;3.72;;
46765;SDS011;32527;51.986;5.842;2023-12-04T11:04:52;9.15;;;4.95;;
46765;SDS011;32527;51.986;5.842;2023-12-04T11:07:21;5.15;;;4.40;;
46765;SDS011;32527;51.986;5.842;2023-12-04T11:09:49;8.05;;;3.97;;
46765;SDS011;32527;51.986;5.842;2023-12-04T11:12:17;10.75;;;5.63;;
46765;SDS011;32527;51.986;5.842;2023-12-04T11:14:48;13.82;;;6.47;;
46765;SDS011;32527;51.986;5.842;2023-12-04T11:17:18;6.78;;;4.97;;
46765;SDS011;32527;51.986;5.842;2023-12-04T11:19:52;10.55;;;4.75;;
46765;SDS011;32527;51.986;5.842;2023-12-04T11:22:21;8.43;;;4.63;;
46765;SDS011;32527;51.986;5.842;2023-12-04T11:24:47;12.90;;;5.50;;
46765;SDS011;32527;51.986;5.842;2023-12-04T11:27:15;10.48;;;6.10;;
46765;SDS011;32527;51.986;5.842;2023-12-04T11:29:45;5.80;;;4.00;;
46765;SDS011;32527;51.986;5.842;2023-12-04T11:32:15;6.82;;;4.18;;
46765;SDS011;32527;51.986;5.842;2023-12-04T11:34:49;7.75;;;4.70;;
46765;SDS011;32527;51.986;5.842;2023-12-04T11:37:19;7.82;;;4.75;;
46765;SDS011;32527;51.986;5.842;2023-12-04T11:39:46;7.15;;;4.55;;
46765;SDS011;32527;51.986;5.842;2023-12-04T11:42:13;9.00;;;4.90;;
46765;SDS011;32527;51.986;5.842;2023-12-04T11:44:42;8.23;;;5.47;;
46765;SDS011;32527;51.986;5.842;2023-12-04T11:47:08;7.22;;;4.30;;
46765;SDS011;32527;51.986;5.842;2023-12-04T11:49:34;6.07;;;4.63;;
46765;SDS011;32527;51.986;5.842;2023-12-04T11:52:01;6.28;;;4.03;;
46765;SDS011;32527;51.986;5.842;2023-12-04T11:54:36;8.50;;;4.68;;
46765;SDS011;32527;51.986;5.842;2023-12-04T11:57:25;10.77;;;5.25;;
46765;SDS011;32527;51.986;5.842;2023-12-04T12:00:07;6.93;;;4.40;;
46765;SDS011;32527;51.986;5.842;2023-12-04T12:02:47;12.98;;;4.63;;
46765;SDS011;32527;51.986;5.842;2023-12-04T12:05:23;3.55;;;2.92;;
46765;SDS011;32527;51.986;5.842;2023-12-04T12:07:50;4.82;;;3.97;;
46765;SDS011;32527;51.986;5.842;2023-12-04T12:10:16;7.50;;;5.43;;
46765;SDS011;32527;51.986;5.842;2023-12-04T12:12:43;5.53;;;4.18;;
46765;SDS011;32527;51.986;5.842;2023-12-04T12:15:09;5.18;;;3.28;;
46765;SDS011;32527;51.986;5.842;2023-12-04T12:17:38;6.63;;;4.32;;
46765;SDS011;32527;51.986;5.842;2023-12-04T12:20:09;8.93;;;5.50;;
46765;SDS011;32527;51.986;5.842;2023-12-04T12:22:36;7.38;;;4.55;;
46765;SDS011;32527;51.986;5.842;2023-12-04T12:25:12;8.23;;;4.25;;
46765;SDS011;32527;51.986;5.842;2023-12-04T12:27:39;11.00;;;5.18;;
46765;SDS011;32527;51.986;5.842;2023-12-04T12:30:05;7.45;;;4.93;;
46765;SDS011;32527;51.986;5.842;2023-12-04T12:32:32;20.88;;;5.25;;
46765;SDS011;32527;51.986;5.842;2023-12-04T12:34:58;6.82;;;4.60;;
46765;SDS011;32527;51.986;5.842;2023-12-04T12:37:24;7.43;;;4.35;;
46765;SDS011;32527;51.986;5.842;2023-12-04T12:39:51;7.80;;;5.50;;
46765;SDS011;32527;51.986;5.842;2023-12-04T12:42:26;9.57;;;5.65;;
46765;SDS011;32527;51.986;5.842;2023-12-04T12:44:53;4.75;;;3.70;;
46765;SDS011;32527;51.986;5.842;2023-12-04T12:47:20;5.65;;;3.70;;
46765;SDS011;32527;51.986;5.842;2023-12-04T12:49:46;7.30;;;4.43;;
46765;SDS011;32527;51.986;5.842;2023-12-04T12:52:13;9.27;;;6.05;;
46765;SDS011;32527;51.986;5.842;2023-12-04T12:54:40;7.40;;;4.57;;
46765;SDS011;32527;51.986;5.842;2023-12-04T12:57:07;9.25;;;4.47;;
46765;SDS011;32527;51.986;5.842;2023-12-04T12:59:33;6.93;;;4.53;;
46765;SDS011;32527;51.986;5.842;2023-12-04T13:01:59;5.55;;;4.07;;
46765;SDS011;32527;51.986;5.842;2023-12-04T13:04:26;6.63;;;3.47;;
46765;SDS011;32527;51.986;5.842;2023-12-04T13:06:59;6.03;;;4.35;;
46765;SDS011;32527;51.986;5.842;2023-12-04T13:09:25;7.97;;;4.25;;
46765;SDS011;32527;51.986;5.842;2023-12-04T13:11:51;12.77;;;4.82;;
46765;SDS011;32527;51.986;5.842;2023-12-04T13:14:18;7.85;;;4.78;;
46765;SDS011;32527;51.986;5.842;2023-12-04T13:16:44;9.38;;;4.40;;
46765;SDS011;32527;51.986;5.842;2023-12-04T13:19:10;12.38;;;5.78;;
46765;SDS011;32527;51.986;5.842;2023-12-04T13:21:36;6.97;;;4.22;;
46765;SDS011;32527;51.986;5.842;2023-12-04T13:24:02;5.80;;;3.72;;
46765;SDS011;32527;51.986;5.842;2023-12-04T13:26:32;4.32;;;3.10;;
46765;SDS011;32527;51.986;5.842;2023-12-04T13:28:58;6.57;;;3.85;;
46765;SDS011;32527;51.986;5.842;2023-12-04T13:31:24;11.95;;;5.50;;
46765;SDS011;32527;51.986;5.842;2023-12-04T13:33:52;5.05;;;3.60;;
46765;SDS011;32527;51.986;5.842;2023-12-04T13:36:19;8.82;;;4.57;;
46765;SDS011;32527;51.986;5.842;2023-12-04T13:38:45;6.53;;;3.05;;
46765;SDS011;32527;51.986;5.842;2023-12-04T13:41:11;10.18;;;5.30;;
46765;SDS011;32527;51.986;5.842;2023-12-04T13:43:55;6.03;;;3.90;;
46765;SDS011;32527;51.986;5.842;2023-12-04T13:46:24;8.52;;;4.00;;
46765;SDS011;32527;51.986;5.842;2023-12-04T13:48:52;5.40;;;4.10;;
46765;SDS011;32527;51.986;5.842;2023-12-04T13:51:18;8.18;;;5.15;;
46765;SDS011;32527;51.986;5.842;2023-12-04T13:53:45;10.25;;;5.55;;
46765;SDS011;32527;51.986;5.842;2023-12-04T13:56:14;8.60;;;4.00;;
46765;SDS011;32527;51.986;5.842;2023-12-04T13:58:47;6.45;;;4.35;;
46765;SDS011;32527;51.986;5.842;2023-12-04T14:01:19;8.85;;;4.43;;
46765;SDS011;32527;51.986;5.842;2023-12-04T14:03:48;7.10;;;4.22;;
46765;SDS011;32527;51.986;5.842;2023-12-04T14:06:14;6.07;;;3.55;;
46765;SDS011;32527;51.986;5.842;2023-12-04T14:08:43;8.27;;;6.15;;
46765;SDS011;32527;51.986;5.842;2023-12-04T14:11:10;8.07;;;4.85;;
46765;SDS011;32527;51.986;5.842;2023-12-04T14:13:37;7.43;;;4.15;;
46765;SDS011;32527;51.986;5.842;2023-12-04T14:16:06;7.95;;;4.85;;
46765;SDS011;32527;51.986;5.842;2023-12-04T14:18:32;6.80;;;4.32;;
46765;SDS011;32527;51.986;5.842;2023-12-04T14:20:59;9.90;;;4.22;;
46765;SDS011;32527;51.986;5.842;2023-12-04T14:23:25;23.17;;;4.85;;
46765;SDS011;32527;51.986;5.842;2023-12-04T14:25:51;7.18;;;4.30;;
46765;SDS011;32527;51.986;5.842;2023-12-04T14:28:17;9.27;;;4.93;;
46765;SDS011;32527;51.986;5.842;2023-12-04T14:30:43;7.68;;;5.10;;
46765;SDS011;32527;51.986;5.842;2023-12-04T14:33:09;12.43;;;4.65;;
46765;SDS011;32527;51.986;5.842;2023-12-04T14:35:35;8.07;;;4.80;;
46765;SDS011;32527;51.986;5.842;2023-12-04T14:38:02;10.13;;;3.78;;
46765;SDS011;32527;51.986;5.842;2023-12-04T14:40:29;7.82;;;3.95;;
46765;SDS011;32527;51.986;5.842;2023-12-04T14:42:55;10.95;;;6.28;;
46765;SDS011;32527;51.986;5.842;2023-12-04T14:45:21;11.48;;;4.65;;